Time;durP1;ratioP1;P1;durP2;ratioP2;P2;SDS_P1;SDS_P2;PMS_P1;PMS_P2;Temp;Humidity;BMP_temperature;BMP_pressure;BME280_temperature;BME280_humidity;BME280_pressure;Samples;Min_cycle;Max_cycle;Signal;HPM_P1;HPM_P2
2022/04/28 00:01:58;;;;;;;2.22;2.00;;;;;;;20.16;37.62;97637.66;10329771;28;20061;-52
2022/04/28 00:07:17;;;;;;;3.05;2.30;;;;;;;20.14;37.59;97634.44;10325523;28;20073;-49
2022/04/28 00:12:38;;;;;;;2.38;2.00;;;;;;;20.14;37.65;97642.56;10328747;28;20059;-52
2022/04/28 00:17:57;;;;;;;2.35;2.15;;;;;;;20.12;37.57;97639.38;10339477;28;20520;-51
2022/04/28 00:23:16;;;;;;;2.85;2.28;;;;;;;20.12;37.69;97633.97;10322102;28;20050;-52
2022/04/28 00:28:36;;;;;;;2.17;1.98;;;;;;;20.11;37.58;97637.75;10331816;28;20058;-52
2022/04/28 00:33:55;;;;;;;2.30;2.10;;;;;;;20.09;37.47;97637.25;10326588;28;20050;-52
2022/04/28 00:39:15;;;;;;;2.65;2.28;;;;;;;20.08;37.71;97636.47;10304007;28;20398;-52
2022/04/28 00:44:34;;;;;;;2.03;1.85;;;;;;;20.06;37.68;97646.00;10341020;28;20109;-51
2022/04/28 00:55:32;;;;;;;2.20;2.00;;;;;;;20.04;37.75;97637.41;10318528;28;20400;-52
2022/04/28 01:00:53;;;;;;;2.65;2.40;;;;;;;20.02;37.68;97636.91;10342023;28;20452;-51
2022/04/28 01:06:13;;;;;;;3.38;2.13;;;;;;;20.01;37.74;97644.22;10328071;28;20066;-52
2022/04/28 01:11:33;;;;;;;1.90;1.80;;;;;;;20.00;37.70;97639.91;10316406;28;20097;-51
2022/04/28 01:17:00;;;;;;;2.42;2.15;;;;;;;19.99;37.71;97638.31;10290097;28;20054;-52
2022/04/28 01:22:20;;;;;;;3.03;2.10;;;;;;;19.99;37.87;97640.22;10324636;28;20050;-49
2022/04/28 01:27:41;;;;;;;2.30;2.10;;;;;;;19.97;37.84;97637.03;10296580;28;20052;-52
2022/04/28 01:33:00;;;;;;;2.20;2.00;;;;;;;19.96;37.75;97638.94;10291558;28;20054;-51
2022/04/28 01:38:20;;;;;;;2.10;1.90;;;;;;;19.95;37.71;97637.31;10300324;28;20058;-50
2022/04/28 01:43:39;;;;;;;2.20;2.00;;;;;;;19.93;37.76;97645.75;10308597;28;20138;-51
2022/04/28 01:49:01;;;;;;;2.30;2.10;;;;;;;19.93;37.73;97640.34;10300543;28;20054;-50
2022/04/28 02:00:16;;;;;;;2.60;2.40;;;;;;;19.91;37.90;97647.16;10310509;28;20109;-50
2022/04/28 02:05:41;;;;;;;2.20;1.95;;;;;;;19.90;37.89;97649.06;10305983;28;20058;-51
2022/04/28 02:11:02;;;;;;;2.47;2.28;;;;;;;19.89;37.76;97650.16;10309017;28;20054;-52
2022/04/28 02:16:40;;;;;;;2.13;2.03;;;;;;;19.87;37.87;97646.16;10327812;28;20061;-51
2022/04/28 02:22:22;;;;;;;2.28;2.08;;;;;;;19.86;37.85;97642.69;10306299;28;20054;-52
2022/04/28 02:27:41;;;;;;;2.55;2.08;;;;;;;19.85;37.89;97643.75;10304285;28;20053;-52
2022/04/28 02:33:10;;;;;;;2.40;2.20;;;;;;;19.83;37.86;97645.97;10316567;28;20050;-52
2022/04/28 02:38:52;;;;;;;4.35;2.25;;;;;;;19.83;37.78;97642.47;10313711;28;20065;-52
2022/04/28 02:44:12;;;;;;;2.30;2.08;;;;;;;19.81;37.63;97631.97;10317263;28;20046;-52
2022/04/28 02:49:32;;;;;;;2.20;2.00;;;;;;;19.79;37.92;97634.16;10306295;28;20054;-51
2022/04/28 02:54:57;;;;;;;2.22;2.03;;;;;;;19.78;37.90;97637.19;10306813;28;20534;-52
2022/04/28 03:00:17;;;;;;;2.42;2.22;;;;;;;19.77;37.85;97639.09;10316063;28;20053;-52
2022/04/28 03:11:31;;;;;;;2.37;2.17;;;;;;;19.74;37.67;97643.22;10287236;28;20082;-52
2022/04/28 03:16:50;;;;;;;2.78;2.03;;;;;;;19.73;37.81;97648.91;10279731;28;20054;-51
2022/04/28 03:22:09;;;;;;;2.15;1.95;;;;;;;19.73;38.01;97648.91;10286712;28;20113;-51
2022/04/28 03:27:31;;;;;;;2.38;2.17;;;;;;;19.71;37.96;97645.69;10288460;28;20050;-52
2022/04/28 03:32:51;;;;;;;2.50;2.30;;;;;;;19.70;38.01;97663.03;10282374;28;20097;-51
2022/04/28 03:38:11;;;;;;;2.30;2.10;;;;;;;19.69;37.99;97666.81;10286072;28;20098;-53
2022/04/28 03:43:31;;;;;;;2.50;2.30;;;;;;;19.68;37.89;97667.91;10276338;28;20058;-52
2022/04/28 03:48:51;;;;;;;2.40;2.20;;;;;;;19.66;37.92;97675.53;10288725;28;20096;-52
2022/04/28 03:54:14;;;;;;;1.92;1.83;;;;;;;19.67;37.93;97682.53;10275194;28;20085;-52
2022/04/28 03:59:33;;;;;;;2.25;2.05;;;;;;;19.65;38.01;97676.63;10279048;28;20038;-50
2022/04/28 04:05:22;;;;;;;2.30;2.10;;;;;;;19.65;38.06;97684.75;10257994;28;20054;-50
2022/04/28 04:10:42;;;;;;;2.50;2.30;;;;;;;19.63;38.07;97686.97;10277888;28;20058;-52
2022/04/28 04:16:02;;;;;;;2.47;2.13;;;;;;;19.63;37.90;97686.97;10293107;28;20068;-52
2022/04/28 04:21:25;;;;;;;2.35;2.15;;;;;;;19.64;37.92;97699.34;10326283;28;20061;-52
2022/04/28 04:26:45;;;;;;;2.35;2.15;;;;;;;19.66;38.09;97699.84;10331838;28;20042;-50
2022/04/28 04:32:26;;;;;;;2.55;2.30;;;;;;;19.67;38.01;97706.88;10318745;28;20108;-52
2022/04/28 04:37:54;;;;;;;2.60;2.40;;;;;;;19.67;37.95;97704.97;10330908;28;20049;-52
2022/04/28 04:43:17;;;;;;;2.47;2.20;;;;;;;19.69;37.96;97701.97;10333221;28;20417;-53
2022/04/28 04:48:37;;;;;;;2.38;2.17;;;;;;;19.70;37.89;97709.78;10344019;28;20051;-52
2022/04/28 04:54:17;;;;;;;2.40;2.20;;;;;;;19.72;37.87;97718.41;10332371;28;20066;-51
2022/04/28 04:59:36;;;;;;;2.78;2.20;;;;;;;19.74;37.85;97723.53;10325570;28;20042;-53
2022/04/28 05:04:57;;;;;;;2.53;2.30;;;;;;;19.77;38.26;97731.00;10318838;28;20497;-52
2022/04/28 05:10:28;;;;;;;2.42;2.10;;;;;;;19.79;38.32;97734.22;10313414;28;20101;-51
2022/04/28 05:15:48;;;;;;;4.70;2.13;;;;;;;19.83;38.41;97740.63;10308775;28;20424;-52
2022/04/28 05:21:14;;;;;;;2.67;2.10;;;;;;;19.86;38.61;97748.13;10310753;28;20046;-52
2022/04/28 05:26:57;;;;;;;2.45;2.08;;;;;;;19.89;38.62;97758.31;10304897;28;20405;-53
2022/04/28 05:32:49;;;;;;;2.15;2.03;;;;;;;19.92;38.79;97751.53;10315985;28;20383;-53
2022/04/28 05:38:29;;;;;;;3.40;2.20;;;;;;;19.97;38.79;97769.53;10317729;28;20053;-52
2022/04/28 05:49:27;;;;;;;6.22;5.05;;;;;;;19.75;34.39;97769.16;10328956;28;20054;-53
2022/04/28 05:54:47;;;;;;;6.85;5.22;;;;;;;19.41;32.95;97777.66;10302369;28;20461;-53
2022/04/28 06:00:07;;;;;;;6.45;4.85;;;;;;;19.19;32.55;97774.81;10315124;28;20047;-53
2022/04/28 06:05:36;;;;;;;5.65;4.60;;;;;;;19.08;31.91;97772.31;10337655;28;20088;-53
2022/04/28 06:10:58;;;;;;;5.68;5.00;;;;;;;19.03;31.86;97768.88;10325153;28;20081;-52
2022/04/28 06:16:20;;;;;;;4.43;3.50;;;;;;;19.29;33.49;97782.75;10297538;28;20109;-52
2022/04/28 06:21:48;;;;;;;3.63;2.97;;;;;;;19.47;34.17;97776.44;10312565;28;20042;-52
2022/04/28 06:27:08;;;;;;;4.50;3.00;;;;;;;19.59;34.33;97783.28;10336239;28;20047;-52
2022/04/28 06:32:29;;;;;;;3.13;2.80;;;;;;;19.65;34.29;97782.06;10313422;28;20058;-52
2022/04/28 06:37:48;;;;;;;4.28;3.10;;;;;;;19.72;34.68;97786.00;10319861;28;20069;-52
2022/04/28 06:43:08;;;;;;;3.65;3.22;;;;;;;19.75;34.60;97776.47;10317734;28;20050;-53
2022/04/28 06:48:47;;;;;;;6.27;3.40;;;;;;;19.79;34.85;97790.19;10326474;28;20042;-52
2022/04/28 06:54:27;;;;;;;7.03;4.03;;;;;;;19.82;35.02;97795.03;10323468;28;20716;-52
2022/04/28 06:59:46;;;;;;;7.30;3.92;;;;;;;19.84;35.31;97792.81;10335634;28;20046;-53
2022/04/28 07:05:10;;;;;;;5.80;3.50;;;;;;;19.85;35.42;97795.19;10302059;28;20053;-50
2022/04/28 07:10:29;;;;;;;9.00;4.00;;;;;;;19.87;35.95;97792.97;10309081;28;20053;-51
2022/04/28 07:15:48;;;;;;;6.82;3.58;;;;;;;19.87;35.99;97792.97;10310190;28;20055;-52
2022/04/28 07:21:32;;;;;;;7.70;4.00;;;;;;;19.88;36.08;97797.31;10307908;28;20050;-49
2022/04/28 07:26:52;;;;;;;7.93;4.38;;;;;;;19.89;36.37;97814.31;10308459;28;20105;-51
2022/04/28 07:32:11;;;;;;;7.80;4.15;;;;;;;19.89;36.80;97807.00;10323447;28;20058;-52
2022/04/28 07:37:51;;;;;;;6.00;3.70;;;;;;;19.91;37.00;97814.81;10326693;28;20135;-50
2022/04/28 07:43:40;;;;;;;5.68;3.70;;;;;;;19.91;37.04;97815.63;10324593;28;20279;-52
2022/04/28 07:49:01;;;;;;;6.07;3.80;;;;;;;19.91;37.02;97815.63;10310058;28;20058;-51
2022/04/28 07:54:21;;;;;;;7.13;3.90;;;;;;;19.92;37.14;97816.44;10310692;28;20047;-52
2022/04/28 07:59:41;;;;;;;6.07;3.60;;;;;;;19.92;37.08;97821.84;10346481;28;20042;-51
2022/04/28 08:05:08;;;;;;;4.68;3.53;;;;;;;19.93;37.01;97829.66;10306288;28;20073;-51
2022/04/28 08:10:28;;;;;;;9.40;3.33;;;;;;;19.93;37.24;97831.53;10313308;28;20580;-51
2022/04/28 08:15:47;;;;;;;5.05;3.33;;;;;;;19.94;37.54;97833.16;10295654;28;20063;-49
2022/04/28 08:21:08;;;;;;;4.95;3.65;;;;;;;19.94;37.67;97842.06;10320623;28;20053;-52
2022/04/28 08:26:29;;;;;;;5.82;3.42;;;;;;;19.95;37.90;97834.75;10322756;28;20039;-50
2022/04/28 08:31:50;;;;;;;5.43;3.38;;;;;;;19.97;37.93;97829.03;10306106;28;20063;-52
2022/04/28 08:37:14;;;;;;;4.90;3.53;;;;;;;19.97;38.18;97840.66;10328503;28;20389;-52
2022/04/28 08:42:37;;;;;;;4.00;3.17;;;;;;;19.95;39.02;97835.56;10308037;28;20066;-49
2022/04/28 08:48:17;;;;;;;5.03;3.17;;;;;;;19.97;38.88;97846.06;10325201;28;20050;-52
2022/04/28 08:53:40;;;;;;;6.30;2.97;;;;;;;19.98;38.78;97849.59;10318179;28;20039;-52
2022/04/28 08:58:59;;;;;;;6.05;2.83;;;;;;;19.98;38.82;97847.69;10319445;28;20065;-52
2022/04/28 09:04:21;;;;;;;5.78;3.28;;;;;;;19.99;38.95;97848.47;10319771;28;20121;-50
2022/04/28 09:09:59;;;;;;;5.90;3.42;;;;;;;19.97;38.60;97851.47;10303030;28;20050;-51
2022/04/28 09:15:38;;;;;;;12.83;4.67;;;;;;;19.90;32.96;97861.91;10322450;28;20069;-51
2022/04/28 09:21:07;;;;;;;15.05;5.05;;;;;;;19.78;30.17;97850.78;10327880;28;20039;-50
2022/04/28 09:26:30;;;;;;;15.60;4.93;;;;;;;19.73;30.31;97849.78;10327464;28;20485;-50
2022/04/28 09:31:53;;;;;;;9.55;3.60;;;;;;;19.72;30.44;97848.19;10341734;28;20050;-52
2022/04/28 09:37:38;;;;;;;7.78;2.95;;;;;;;19.68;29.15;97849.84;10315753;28;20054;-51
2022/04/28 09:43:02;;;;;;;4.68;3.17;;;;;;;19.63;27.79;97854.56;10310290;28;20057;-50
2022/04/28 09:48:32;;;;;;;3.50;2.20;;;;;;;19.63;28.25;97843.75;10315657;28;20053;-52
2022/04/28 09:53:54;;;;;;;3.28;2.40;;;;;;;19.63;28.87;97849.16;10332408;28;20637;-52
2022/04/28 09:59:25;;;;;;;3.17;2.05;;;;;;;19.58;28.04;97835.72;10312714;28;20057;-51
2022/04/28 10:04:47;;;;;;;3.53;1.92;;;;;;;19.56;28.41;97850.34;10334548;28;20057;-50
2022/04/28 10:10:36;;;;;;;3.35;2.40;;;;;;;19.54;27.57;97836.31;10311563;28;20082;-52
2022/04/28 10:16:11;;;;;;;3.30;2.30;;;;;;;19.52;28.31;97843.94;10327465;28;20529;-52
2022/04/28 10:21:56;;;;;;;3.85;2.10;;;;;;;19.55;30.02;97845.22;10303312;28;20501;-49
2022/04/28 10:33:00;;;;;;;3.50;2.42;;;;;;;19.59;29.49;97851.63;10327673;28;20076;-52
2022/04/28 10:38:31;;;;;;;6.22;2.60;;;;;;;19.60;29.21;97860.53;10304493;28;20047;-49
2022/04/28 10:43:52;;;;;;;5.60;3.50;;;;;;;19.59;29.16;97853.53;10322602;28;20066;-51
2022/04/28 10:49:12;;;;;;;6.80;5.10;;;;;;;19.55;29.14;97846.03;10321131;28;20113;-52
2022/04/28 10:54:44;;;;;;;15.15;10.80;;;;;;;19.57;32.13;97848.44;10313263;28;20054;-51
2022/04/28 11:00:04;;;;;;;21.92;15.55;;;;;;;19.58;33.95;97850.03;10317985;28;20047;-51
2022/04/28 11:05:29;;;;;;;22.90;15.45;;;;;;;19.61;34.60;97837.84;10341008;28;20034;-50
2022/04/28 11:11:03;;;;;;;19.88;14.48;;;;;;;19.62;34.90;97844.81;10325519;28;20046;-53
2022/04/28 11:16:22;;;;;;;13.73;9.15;;;;;;;19.62;34.41;97852.94;10325528;28;20054;-52
2022/04/28 11:21:43;;;;;;;9.30;5.07;;;;;;;19.57;31.64;97848.44;10313474;28;20051;-51
2022/04/28 11:27:03;;;;;;;4.72;3.80;;;;;;;19.54;31.59;97857.13;10330990;28;20671;-50
2022/04/28 11:32:52;;;;;;;5.35;3.40;;;;;;;19.52;32.43;97843.94;10319450;28;20498;-52
2022/04/28 11:38:12;;;;;;;4.75;3.50;;;;;;;19.53;32.62;97842.03;10332138;28;20058;-52
2022/04/28 11:43:34;;;;;;;4.60;3.72;;;;;;;19.51;30.31;97839.63;10344197;28;20038;-53
2022/04/28 11:48:54;;;;;;;2.97;2.60;;;;;;;19.47;29.67;97843.22;10332187;28;20050;-52
2022/04/28 11:54:25;;;;;;;5.95;3.00;;;;;;;19.38;29.13;97848.50;10349567;28;20084;-53
2022/04/28 11:59:47;;;;;;;2.60;2.40;;;;;;;19.34;28.66;97844.78;10331202;28;20486;-50
2022/04/28 12:05:19;;;;;;;4.25;2.25;;;;;;;19.35;29.80;97835.59;10330570;28;20057;-53
2022/04/28 12:16:19;;;;;;;2.90;2.10;;;;;;;19.36;30.57;97842.59;10331648;28;20062;-52
2022/04/28 12:21:42;;;;;;;3.33;2.10;;;;;;;19.36;31.50;97835.28;10318672;28;20050;-52
2022/04/28 12:27:07;;;;;;;2.45;1.92;;;;;;;19.38;32.12;97837.69;10341964;28;20045;-52
2022/04/28 12:32:26;;;;;;;2.28;1.83;;;;;;;19.40;32.20;97827.38;10328578;28;20050;-52
2022/04/28 12:37:46;;;;;;;3.35;2.30;;;;;;;19.44;32.53;97833.00;10346120;28;20031;-52
2022/04/28 12:43:06;;;;;;;2.80;2.30;;;;;;;19.44;33.03;97820.28;10340026;28;20038;-53
2022/04/28 12:48:34;;;;;;;3.58;2.67;;;;;;;19.44;33.22;97808.69;10329954;28;20084;-53
2022/04/28 12:53:56;;;;;;;3.15;2.63;;;;;;;19.44;33.49;97812.16;10327313;28;20054;-51
2022/04/28 12:59:17;;;;;;;4.25;2.60;;;;;;;19.44;33.64;97812.16;10328275;28;20066;-52
2022/04/28 13:04:38;;;;;;;3.22;2.90;;;;;;;19.45;33.66;97802.19;10324954;28;20062;-51
2022/04/28 13:09:58;;;;;;;3.15;2.45;;;;;;;19.46;33.84;97803.78;10332407;28;20391;-50
2022/04/28 13:15:19;;;;;;;2.70;2.38;;;;;;;19.45;33.63;97807.59;10326791;28;20047;-51
2022/04/28 13:20:39;;;;;;;4.30;2.78;;;;;;;19.43;33.23;97799.78;10345382;28;20050;-51
2022/04/28 13:25:58;;;;;;;4.38;2.65;;;;;;;19.43;33.60;97793.56;10341782;28;20481;-51
2022/04/28 13:31:19;;;;;;;2.97;2.70;;;;;;;19.43;33.56;97793.56;10320720;28;20519;-50
2022/04/28 13:36:39;;;;;;;2.85;2.50;;;;;;;19.42;33.58;97787.34;10330931;28;20058;-51
2022/04/28 13:41:58;;;;;;;2.80;2.60;;;;;;;19.45;33.71;97786.75;10350278;28;20716;-52
2022/04/28 13:47:17;;;;;;;3.00;2.67;;;;;;;19.44;33.91;97779.75;10326681;28;20062;-52
2022/04/28 13:52:36;;;;;;;3.05;2.70;;;;;;;19.48;34.07;97775.38;10300304;28;20061;-51
2022/04/28 13:57:56;;;;;;;2.67;2.47;;;;;;;19.47;34.44;97779.16;10328252;28;20046;-51
2022/04/28 14:03:15;;;;;;;2.70;2.50;;;;;;;19.48;34.35;97767.25;10322386;28;20050;-52
2022/04/28 14:08:36;;;;;;;2.67;2.35;;;;;;;19.51;34.30;97760.44;10323597;28;20620;-49
2022/04/28 14:13:56;;;;;;;3.63;2.50;;;;;;;19.56;34.64;97755.75;10323280;28;20066;-53
2022/04/28 14:19:16;;;;;;;2.83;2.63;;;;;;;19.60;34.99;97757.81;10308183;28;20105;-52
2022/04/28 14:24:35;;;;;;;2.92;2.40;;;;;;;19.62;35.13;97758.31;10318951;28;20104;-52
2022/04/28 14:29:55;;;;;;;2.70;2.50;;;;;;;19.62;35.06;97753.75;10325836;28;20051;-52
2022/04/28 14:35:14;;;;;;;2.40;2.20;;;;;;;19.62;34.74;97758.31;10323733;28;20413;-52
2022/04/28 14:40:34;;;;;;;2.50;2.30;;;;;;;19.63;34.58;97759.94;10327653;28;20390;-51
2022/04/28 14:45:54;;;;;;;2.63;2.42;;;;;;;19.64;34.53;97758.81;10322559;28;20050;-52
2022/04/28 14:56:52;;;;;;;3.03;2.40;;;;;;;19.65;32.63;97747.72;10317655;28;20054;-52
2022/04/28 15:02:12;;;;;;;2.58;2.20;;;;;;;19.67;32.05;97752.81;10314348;28;20101;-53
2022/04/28 15:07:33;;;;;;;2.00;1.90;;;;;;;19.67;32.85;97756.31;10316556;28;20054;-52
2022/04/28 15:12:54;;;;;;;2.20;1.95;;;;;;;19.67;33.03;97755.53;10313032;28;20062;-52
2022/04/28 15:18:13;;;;;;;2.10;1.90;;;;;;;19.68;33.10;97749.81;10333561;28;20046;-53
2022/04/28 15:23:32;;;;;;;2.10;1.90;;;;;;;19.69;33.00;97751.41;10314262;28;20058;-50
2022/04/28 15:28:52;;;;;;;2.08;1.80;;;;;;;19.71;32.91;97749.25;10338857;28;20046;-51
2022/04/28 15:34:13;;;;;;;1.92;1.83;;;;;;;19.74;32.89;97755.97;10314310;28;20058;-52
2022/04/28 15:39:33;;;;;;;3.20;1.90;;;;;;;19.78;32.89;97750.72;10326267;28;20050;-52
2022/04/28 15:44:53;;;;;;;1.75;1.65;;;;;;;19.80;32.88;97748.53;10327293;28;20241;-52
2022/04/28 15:50:15;;;;;;;2.00;1.80;;;;;;;19.82;32.87;97752.56;10335283;28;20069;-51
2022/04/28 15:55:34;;;;;;;2.03;1.63;;;;;;;19.84;33.05;97749.53;10314236;28;20437;-51
2022/04/28 16:00:54;;;;;;;3.28;1.70;;;;;;;19.87;33.01;97746.22;10326427;28;20042;-52
2022/04/28 16:06:14;;;;;;;2.60;1.80;;;;;;;19.89;33.00;97744.00;10336403;28;20053;-51
2022/04/28 16:11:34;;;;;;;2.70;1.77;;;;;;;19.92;33.05;97746.13;10325414;28;20050;-52
2022/04/28 16:16:54;;;;;;;1.73;1.63;;;;;;;19.91;33.04;97744.50;10327756;28;20402;-52
2022/04/28 16:22:17;;;;;;;2.30;1.55;;;;;;;19.91;32.96;97739.91;10310731;28;20063;-52
2022/04/28 16:27:37;;;;;;;1.92;1.70;;;;;;;19.91;32.92;97745.31;10343725;28;20124;-52
2022/04/28 16:32:57;;;;;;;3.50;1.70;;;;;;;19.91;32.88;97748.00;10331872;28;20417;-52
2022/04/28 16:38:17;;;;;;;2.08;1.92;;;;;;;19.93;33.00;97750.41;10329180;28;20050;-52
2022/04/28 16:43:38;;;;;;;2.88;1.75;;;;;;;19.92;33.13;97749.63;10329314;28;20050;-53
2022/04/28 16:48:57;;;;;;;2.72;1.73;;;;;;;19.92;33.00;97746.91;10283399;28;20047;-50
2022/04/28 16:54:17;;;;;;;2.33;1.90;;;;;;;19.93;33.18;97750.41;10330025;28;20050;-51
2022/04/28 16:59:38;;;;;;;1.90;1.70;;;;;;;19.92;33.31;97757.72;10336609;28;20513;-52
2022/04/28 17:04:57;;;;;;;2.45;1.67;;;;;;;19.91;33.04;97761.53;10323456;28;20150;-52
2022/04/28 17:10:17;;;;;;;2.95;1.70;;;;;;;19.91;33.28;97758.03;10344028;28;20038;-52
2022/04/28 17:15:38;;;;;;;2.20;1.83;;;;;;;19.91;33.58;97771.56;10332998;28;20070;-52
2022/04/28 17:20:57;;;;;;;5.22;2.92;;;;;;;19.88;31.59;97778.38;10345447;28;20482;-51
2022/04/28 17:26:17;;;;;;;4.70;3.42;;;;;;;19.81;30.42;97782.59;10331194;28;20116;-53
2022/04/28 17:31:38;;;;;;;3.67;3.10;;;;;;;19.75;30.78;97790.78;10324553;28;20490;-53
2022/04/28 17:36:57;;;;;;;3.80;2.67;;;;;;;19.78;31.73;97786.69;10323561;28;20061;-53
2022/04/28 17:42:16;;;;;;;2.55;2.35;;;;;;;19.80;32.16;97789.09;10328728;28;20050;-52
2022/04/28 17:47:36;;;;;;;2.70;2.25;;;;;;;19.81;32.21;97793.41;10330592;28;20042;-50
2022/04/28 17:52:56;;;;;;;3.17;2.30;;;;;;;19.81;32.42;97807.72;10335102;28;20041;-51
2022/04/28 18:03:55;;;;;;;4.07;2.40;;;;;;;19.82;32.31;97813.94;10324150;28;20069;-49
2022/04/28 18:09:14;;;;;;;2.53;2.15;;;;;;;19.80;32.33;97808.00;10324264;28;20046;-51
2022/04/28 18:14:34;;;;;;;2.47;2.28;;;;;;;19.80;32.37;97818.81;10324386;28;20398;-50
2022/04/28 18:19:54;;;;;;;4.22;2.40;;;;;;;19.78;32.32;97821.03;10323709;28;20825;-51
2022/04/28 18:25:13;;;;;;;3.20;2.83;;;;;;;19.77;32.33;97835.66;10340119;28;20077;-52
2022/04/28 18:30:32;;;;;;;3.00;2.67;;;;;;;19.77;32.34;97839.16;10329275;28;20050;-52
2022/04/28 18:47:29;;;;;;;3.13;2.67;;;;;;;19.72;33.29;97856.28;10327622;28;20061;-52
2022/04/28 18:52:49;;;;;;;6.20;2.50;;;;;;;19.73;33.71;97860.59;10338333;28;20053;-52
2022/04/28 18:58:08;;;;;;;2.97;2.28;;;;;;;19.74;34.42;97872.22;10314601;28;20063;-49
2022/04/28 19:03:28;;;;;;;7.35;2.92;;;;;;;19.73;34.55;97862.50;10334314;28;20046;-51
2022/04/28 19:08:48;;;;;;;2.75;2.28;;;;;;;19.74;34.93;97874.94;10329079;28;20058;-52
2022/04/28 19:19:46;;;;;;;4.80;2.87;;;;;;;19.72;35.59;97877.91;10322062;28;20050;-52
2022/04/28 19:25:07;;;;;;;3.63;2.40;;;;;;;19.73;35.63;97884.13;10313295;28;20050;-52
2022/04/28 19:30:26;;;;;;;4.15;2.33;;;;;;;19.72;36.04;97887.94;10312269;28;20450;-51
2022/04/28 19:35:46;;;;;;;6.20;2.50;;;;;;;19.71;36.06;97892.53;10335958;28;20035;-51
2022/04/28 19:41:05;;;;;;;4.47;2.20;;;;;;;19.71;36.32;97889.00;10324413;28;20050;-51
2022/04/28 19:46:25;;;;;;;2.92;2.40;;;;;;;19.70;36.42;97904.44;10364635;28;20061;-49
2022/04/28 19:51:48;;;;;;;3.15;2.50;;;;;;;19.70;36.64;97903.63;10341053;28;20061;-52
2022/04/28 19:57:08;;;;;;;3.15;2.30;;;;;;;19.69;36.58;97908.22;10338280;28;20444;-51
2022/04/28 20:02:28;;;;;;;4.10;2.33;;;;;;;19.69;36.81;97905.50;10347831;28;20041;-50
2022/04/28 20:07:47;;;;;;;6.03;2.17;;;;;;;19.70;36.61;97903.63;10328157;28;20478;-49
2022/04/28 20:13:10;;;;;;;3.40;2.60;;;;;;;19.69;36.61;97918.22;10326052;28;20077;-49
2022/04/28 20:18:31;;;;;;;4.00;2.30;;;;;;;19.69;36.50;97918.22;10328363;28;20050;-52
2022/04/28 20:23:51;;;;;;;2.90;2.28;;;;;;;19.67;36.70;97921.22;10345201;28;20049;-51
2022/04/28 20:29:11;;;;;;;2.83;2.03;;;;;;;19.67;37.11;97921.22;10344084;28;20046;-52
2022/04/28 20:34:31;;;;;;;4.60;2.50;;;;;;;19.66;37.15;97925.03;10327562;28;20497;-51
2022/04/28 20:39:51;;;;;;;3.13;2.30;;;;;;;19.66;37.19;97927.75;10328661;28;20104;-51
2022/04/28 20:45:11;;;;;;;2.65;2.20;;;;;;;19.67;37.29;97933.94;10324640;28;20456;-52
2022/04/28 20:50:35;;;;;;;2.60;2.00;;;;;;;19.69;37.32;97932.53;10322281;28;20054;-49
2022/04/28 20:55:54;;;;;;;3.20;2.10;;;;;;;19.73;37.14;97940.91;10339495;28;20034;-51
2022/04/28 21:01:14;;;;;;;3.05;2.13;;;;;;;19.72;37.22;97936.59;10324585;28;20042;-51
2022/04/28 21:06:35;;;;;;;2.13;2.00;;;;;;;19.70;37.30;97941.47;10340658;28;20054;-49
2022/04/28 21:11:55;;;;;;;2.33;2.08;;;;;;;19.68;37.22;97935.53;10316126;28;20565;-51
2022/04/28 21:17:15;;;;;;;3.13;2.20;;;;;;;19.65;37.30;97939.66;10321713;28;20056;-52
2022/04/28 21:22:35;;;;;;;4.03;2.03;;;;;;;19.63;37.44;97941.84;10330572;28;20402;-50
2022/04/28 21:27:55;;;;;;;2.63;2.22;;;;;;;19.62;37.49;97944.84;10321261;28;20050;-52
2022/04/28 21:33:15;;;;;;;2.30;2.10;;;;;;;19.61;37.46;97937.84;10310231;28;20050;-50
2022/04/28 21:38:35;;;;;;;3.17;2.05;;;;;;;19.59;37.54;97943.53;10303324;28;20078;-50
2022/04/28 21:43:54;;;;;;;2.30;2.10;;;;;;;19.59;37.49;97938.13;10331974;28;20796;-49
2022/04/28 21:49:14;;;;;;;2.20;2.00;;;;;;;19.59;37.55;97937.34;10315250;28;20051;-49
2022/04/28 21:54:33;;;;;;;2.13;1.92;;;;;;;19.57;37.62;97934.94;10309403;28;20065;-50
2022/04/28 21:59:53;;;;;;;2.10;1.90;;;;;;;19.56;37.52;97936.84;10336583;28;20053;-50
2022/04/28 22:16:29;;;;;;;2.63;2.43;;;;;;;19.54;37.73;97946.31;10311030;28;20082;-49
2022/04/28 22:21:48;;;;;;;2.85;2.00;;;;;;;19.53;37.66;97950.13;10310019;28;20545;-49
2022/04/28 22:27:08;;;;;;;2.60;2.08;;;;;;;19.52;37.76;97954.75;10338392;28;20036;-51
2022/04/28 22:32:27;;;;;;;2.30;2.10;;;;;;;19.51;37.77;97955.84;10320097;28;20544;-49
2022/04/28 22:37:48;;;;;;;3.25;2.40;;;;;;;19.50;37.85;97940.72;10322219;28;20058;-52
2022/04/28 22:43:07;;;;;;;2.05;1.95;;;;;;;19.51;37.80;97955.03;10318508;28;20493;-50
2022/04/28 22:48:28;;;;;;;2.95;2.00;;;;;;;19.51;37.84;97941.53;10335750;28;20072;-51
2022/04/28 22:53:47;;;;;;;2.08;1.88;;;;;;;19.49;37.86;97944.50;10324315;28;20067;-52
2022/04/28 22:59:07;;;;;;;3.97;2.00;;;;;;;19.49;37.90;97946.41;10320893;28;20038;-51
2022/04/28 23:04:26;;;;;;;2.03;1.83;;;;;;;19.48;37.84;97937.53;10324196;28;20062;-50
2022/04/28 23:09:45;;;;;;;2.10;1.90;;;;;;;19.46;37.93;97938.88;10329915;28;20042;-51
2022/04/28 23:15:06;;;;;;;1.85;1.67;;;;;;;19.46;37.85;97945.09;10318794;28;20628;-51
2022/04/28 23:20:26;;;;;;;2.10;1.90;;;;;;;19.45;37.85;97935.41;10323486;28;20062;-49
2022/04/28 23:25:46;;;;;;;2.20;1.98;;;;;;;19.44;37.97;97930.28;10322326;28;20134;-49
2022/04/28 23:31:05;;;;;;;1.80;1.70;;;;;;;19.43;37.89;97934.09;10332447;28;20051;-51
2022/04/28 23:47:42;;;;;;;;;;;;;;;19.40;38.12;97932.75;10312945;28;20050;-51
2022/04/28 23:58:39;;;;;;;2.47;1.93;;;;;;;19.38;38.04;97921.44;10321871;28;19922;-49
